Airfield :
LOGIN :

Register | Disclaimer

   EN    FR    IT 

 










Legend :    VFR   Marginal VFR   IFR   Intensive IFR   Very Intensive IFR
Visi :
Ceiling :
>= 8 km
>= 3000ft
5 to 8 km
1000 to 3000 ft
1500m to 5 km
500 to 1000 ft
800 to 1500m
200 to 500 ft
< 800m
< 200 ft
Symbols :   Thunderstorms  Fog  Heavy snow  Heavy precipitations  Wind > 20 kt
SIGMETs :     Misc.  Thunderstorms  Icing  Turbulence  Mountain Waves  Volcanic Ashes






- Airport Elevation : 791 ft
- IATA code : KRK


EPKK - Krakow-Balice

CURRENT METAR :
  • 270530Z 21006KT 3000 BR NSC M04/M04 Q1017

EXPIRED METARs :
  • 270500Z 20005KT 3000 BR NSC M04/M04 Q1017
  • 270430Z 20003KT 2500 BR NSC M04/M05 Q1017
  • 270400Z 20002KT 2000 BR NSC M04/M04 Q1017
  • 270330Z VRB02KT 2000 BR NSC M04/M05 Q1017
  • 270300Z 23003KT 2000 BR NSC M05/M05 Q1017

TAF TAF EPKK
Valid from the 27 at 06:00 until the 28 at 06:00 UTC


270530Z 2706/2806 23002KT 3000 BR NSC
TEMPO 2706/2708 1200 BR
BECMG 2708/2711 7000
BECMG 2715/2717 3000 BR
BECMG 2717/2719 1200 BR
TEMPO 2720/2803 0600 FZFG
BECMG 2803/2806 05010KT 6000



MET'MAP, your aeronautical weather chart ! - Copyright ORBIFLY December 2007 - Disclaimer

ORBIFLY MET'MAP TEAM :

Programming & Development : Alexandra Zaïnal
Concept & original design : Baudouin d'Aumeries
Assistance for programming : Marc-Olivier Méhu
Technical & hardware support : Manuel Goepfert

Contact : metmap@orbifly.com




SOURCES & CREDITS :

   NOAA